My Meet Scores
Leah Friede, Prairie Gymnastics Club - MyMeetScores.com
Top100 | Top Teams | Upcoming Meets | Completed Meets | Latest | Add Scores | Help| Support | Bookmark and Share

Leah Friede, Prairie Gymnastics Club
Personal Bests
LevelVault BarsBeamFloorAA
48.7508.700 9.5008.90035.850
58.6507.000 9.3008.47532.125
68.9009.000 8.9259.35035.425
Meet Scores
Date Meet Team Session Level Division Vault Bars Beam Floor AA
2021-04-15 Illinois level 6 & Xcel Silver State Champion Prairie Gymnastics Club 08 6 Sr A 8.600 22 8.100 28 8.925 21 9.250 22T 34.875 24
2021-02-27 2021 Great Western Invitational Girls Prairie Gymnastics Club 8 6 Pony 8.575 8T 9.000 6T 8.500 7T 9.350 4T 35.425 6
2021-01-21 King Arthur Invitational Prairie Gymnastics Club 5 6 All 8.600 7T 8.700 5T 8.275 9 9.200 4 34.775 6
2020-02-28 MEGA Spring Invite 2020 Prairie Gymnastics Club 2 6 Junior 8.000 23 8.500 16T 8.725 18 8.400 22 33.625 21
2020-02-21 Great Western Invitational - Women's Prairie Gymnastics Club 11 6 Filly 8.900 17 8.900 9T 8.225 19 8.650 18 34.675 19
2020-01-31 Big Chill Prairie Gymnastics Club 1 6 11 8.375 14 8.875 6 8.525 13T 8.725 15 34.500 13
2020-01-24 King Arthur Invitational Prairie Gymnastics Club 2 6 JR 8.100 14 8.600 7 7.000 13 8.700 13 32.400 13
2019-12-20 2019 Women's Hawaiian Pineapple Classic Prairie Gymnastics Club 3A 6 Age 11 8.375 12 7.950 10 7.250 11 8.450 12 32.025 12
2019-03-01 2019 MEGA Spring Invite Prairie Gymnastics Club All 5 All Ages 8.650 42 6.500 44 8.850 26T 8.125 43 32.125 44
2019-02-22 Great Western Invitational - Women's Prairie Gymnastics Club 01 5 Filly 8.175 14 6.650 18 9.300 5 7.850 16 31.975 15
2019-02-01 The Big Chill Prairie Gymnastics Club 1 5 10 yr olds 0.000 7 6.800 9 8.050 7 8.475 8 31.625 8
2019-01-25 King Arthur Invitational Prairie Gymnastics Club 13 5 JR B 8.625 11 6.750 11 8.225 12 7.850 12 31.450 11
2018-12-14 Hawaiian Pineapple Classic Prairie Gymnastics Club 4B 5 Age10 7.900 14 7.000 15 8.675 6T 8.050 14 31.625 14
2018-03-09 Girl Power Prairie Gymnastics Club 6B 4 Jr A 8.750 7 8.700 8T 9.500 1T 8.900 9 35.850 7
2018-02-01 The Big Chill Prairie Gymnastics Club 4 4 9 yr olds 8.175 11 8.050 17 9.025 3 8.550 10T 33.800 10
2018-01-19 2018 Hang 10.0 Invitational Prairie Gymnastics Club 1 4 9 Yr Olds 8.100 9 7.950 8 8.825 10 8.550 9 33.425 9
2017-12-14 2017 Women's Hawaiian Pineapple Classic Prairie Gymnastics Club 8A 4 Age9 8.450 14 7.875 20T 8.625 14 8.600 13T 33.550 17
2017-02-24 Kinetic Classic Prairie Gymnastics Club 5,6 4 All Ages 7.300 130 6.200 130 8.650 106T 7.725 127 29.875 130
2017-02-18 2017 Great Western Invitational Women's Prairie Gymnastics Club 5 4 Filly 7.500 21 0.000 22T 8.475 21 8.150 19 24.125 22
2017-01-27 Circle Of Stars Gymnastics Invitational Prairie Gymnastics Club D18 4 Jr A 7.650 15T 0.000 18T 7.725 16 7.950 16 23.325 18
2017-01-07 2017 Flip'r Invitational Prairie Gymnastics Club 4 Lvl 4: Child 8.150 7 0.000 9 8.275 8 8.400 8 24.825 9
Get your scores on
a t-shirt, pin, or hoodie